sensor_id;sensor_type;location;lat;lon;timestamp;temperature;humidity
14144;DHT22;7152;48.348;10.980;2023-06-24T00:00:14;17.40;99.90
14144;DHT22;7152;48.348;10.980;2023-06-24T00:02:43;17.40;99.90
14144;DHT22;7152;48.348;10.980;2023-06-24T00:05:11;17.40;99.90
14144;DHT22;7152;48.348;10.980;2023-06-24T00:07:36;17.40;99.90
14144;DHT22;7152;48.348;10.980;2023-06-24T00:10:11;17.40;99.90
14144;DHT22;7152;48.348;10.980;2023-06-24T00:12:38;17.30;99.90
14144;DHT22;7152;48.348;10.980;2023-06-24T00:15:06;17.30;99.90
14144;DHT22;7152;48.348;10.980;2023-06-24T00:17:32;17.30;99.90
14144;DHT22;7152;48.348;10.980;2023-06-24T00:19:58;17.20;99.90
14144;DHT22;7152;48.348;10.980;2023-06-24T00:22:23;17.30;99.90
14144;DHT22;7152;48.348;10.980;2023-06-24T00:24:49;17.20;99.90
14144;DHT22;7152;48.348;10.980;2023-06-24T00:27:16;17.20;99.90
14144;DHT22;7152;48.348;10.980;2023-06-24T00:29:44;17.20;99.90
14144;DHT22;7152;48.348;10.980;2023-06-24T00:32:10;17.20;99.90
14144;DHT22;7152;48.348;10.980;2023-06-24T00:34:36;17.20;99.90
14144;DHT22;7152;48.348;10.980;2023-06-24T00:37:02;17.20;99.90
14144;DHT22;7152;48.348;10.980;2023-06-24T00:39:28;17.20;99.90
14144;DHT22;7152;48.348;10.980;2023-06-24T00:41:54;17.20;99.90
14144;DHT22;7152;48.348;10.980;2023-06-24T00:44:21;17.30;99.90
14144;DHT22;7152;48.348;10.980;2023-06-24T00:46:46;17.30;99.90
14144;DHT22;7152;48.348;10.980;2023-06-24T00:49:12;17.30;99.90
14144;DHT22;7152;48.348;10.980;2023-06-24T00:51:40;17.30;99.90
14144;DHT22;7152;48.348;10.980;2023-06-24T00:54:13;17.30;99.90
14144;DHT22;7152;48.348;10.980;2023-06-24T00:56:38;17.30;99.90
14144;DHT22;7152;48.348;10.980;2023-06-24T00:59:06;17.40;99.90
14144;DHT22;7152;48.348;10.980;2023-06-24T01:01:33;17.30;99.90
14144;DHT22;7152;48.348;10.980;2023-06-24T01:04:01;17.40;99.90
14144;DHT22;7152;48.348;10.980;2023-06-24T01:06:31;17.40;99.90
14144;DHT22;7152;48.348;10.980;2023-06-24T01:08:57;17.40;99.90
14144;DHT22;7152;48.348;10.980;2023-06-24T01:11:26;17.30;99.90
14144;DHT22;7152;48.348;10.980;2023-06-24T01:13:53;17.30;99.90
14144;DHT22;7152;48.348;10.980;2023-06-24T01:20:00;17.30;99.90
14144;DHT22;7152;48.348;10.980;2023-06-24T01:36:19;17.30;99.90
14144;DHT22;7152;48.348;10.980;2023-06-24T01:38:51;17.30;99.90
14144;DHT22;7152;48.348;10.980;2023-06-24T01:41:24;17.30;99.90
14144;DHT22;7152;48.348;10.980;2023-06-24T01:43:52;17.20;99.90
14144;DHT22;7152;48.348;10.980;2023-06-24T01:46:22;17.20;99.90
14144;DHT22;7152;48.348;10.980;2023-06-24T01:48:48;17.20;99.90
14144;DHT22;7152;48.348;10.980;2023-06-24T01:51:18;17.10;99.90
14144;DHT22;7152;48.348;10.980;2023-06-24T01:53:56;17.20;99.90
14144;DHT22;7152;48.348;10.980;2023-06-24T01:56:25;17.20;99.90
14144;DHT22;7152;48.348;10.980;2023-06-24T01:58:54;17.20;99.90
14144;DHT22;7152;48.348;10.980;2023-06-24T02:01:23;17.20;99.90
14144;DHT22;7152;48.348;10.980;2023-06-24T02:03:49;17.10;99.90
14144;DHT22;7152;48.348;10.980;2023-06-24T02:06:16;17.10;99.90
14144;DHT22;7152;48.348;10.980;2023-06-24T02:08:43;17.10;99.90
14144;DHT22;7152;48.348;10.980;2023-06-24T02:11:14;17.10;99.90
14144;DHT22;7152;48.348;10.980;2023-06-24T02:13:43;17.10;99.90
14144;DHT22;7152;48.348;10.980;2023-06-24T02:16:16;17.10;99.90
14144;DHT22;7152;48.348;10.980;2023-06-24T02:18:43;17.00;99.90
14144;DHT22;7152;48.348;10.980;2023-06-24T02:21:12;17.10;99.90
14144;DHT22;7152;48.348;10.980;2023-06-24T02:23:39;17.00;99.90
14144;DHT22;7152;48.348;10.980;2023-06-24T02:26:06;17.00;99.90
14144;DHT22;7152;48.348;10.980;2023-06-24T02:28:33;17.00;99.90
14144;DHT22;7152;48.348;10.980;2023-06-24T02:31:03;17.00;99.90
14144;DHT22;7152;48.348;10.980;2023-06-24T02:33:30;17.00;99.90
14144;DHT22;7152;48.348;10.980;2023-06-24T02:35:55;17.00;99.90
14144;DHT22;7152;48.348;10.980;2023-06-24T02:38:22;17.00;99.90
14144;DHT22;7152;48.348;10.980;2023-06-24T02:40:48;17.00;99.90
14144;DHT22;7152;48.348;10.980;2023-06-24T02:43:16;17.00;99.90
14144;DHT22;7152;48.348;10.980;2023-06-24T02:45:42;17.00;99.90
14144;DHT22;7152;48.348;10.980;2023-06-24T02:48:09;17.00;99.90
14144;DHT22;7152;48.348;10.980;2023-06-24T02:50:37;16.90;99.90
14144;DHT22;7152;48.348;10.980;2023-06-24T02:53:04;16.90;99.90
14144;DHT22;7152;48.348;10.980;2023-06-24T02:55:35;16.90;99.90
14144;DHT22;7152;48.348;10.980;2023-06-24T02:58:03;16.90;99.90
14144;DHT22;7152;48.348;10.980;2023-06-24T03:00:54;16.90;99.90
14144;DHT22;7152;48.348;10.980;2023-06-24T03:03:33;17.00;99.90
14144;DHT22;7152;48.348;10.980;2023-06-24T03:06:00;17.00;99.90
14144;DHT22;7152;48.348;10.980;2023-06-24T03:08:29;17.00;99.90
14144;DHT22;7152;48.348;10.980;2023-06-24T03:10:56;16.90;99.90
14144;DHT22;7152;48.348;10.980;2023-06-24T03:13:24;16.90;99.90
14144;DHT22;7152;48.348;10.980;2023-06-24T03:15:57;16.90;99.90
14144;DHT22;7152;48.348;10.980;2023-06-24T03:18:23;16.90;99.90
14144;DHT22;7152;48.348;10.980;2023-06-24T03:20:49;16.90;99.90
14144;DHT22;7152;48.348;10.980;2023-06-24T03:23:19;16.90;99.90
14144;DHT22;7152;48.348;10.980;2023-06-24T03:25:45;16.90;99.90
14144;DHT22;7152;48.348;10.980;2023-06-24T03:28:10;16.90;99.90
14144;DHT22;7152;48.348;10.980;2023-06-24T03:30:43;16.90;99.90
14144;DHT22;7152;48.348;10.980;2023-06-24T03:33:11;16.90;99.90
14144;DHT22;7152;48.348;10.980;2023-06-24T03:35:43;16.90;99.90
14144;DHT22;7152;48.348;10.980;2023-06-24T03:38:12;16.90;99.90
14144;DHT22;7152;48.348;10.980;2023-06-24T03:40:39;16.90;99.90
14144;DHT22;7152;48.348;10.980;2023-06-24T03:43:05;16.90;99.90
14144;DHT22;7152;48.348;10.980;2023-06-24T03:45:32;16.80;99.90
14144;DHT22;7152;48.348;10.980;2023-06-24T03:47:58;16.90;99.90
14144;DHT22;7152;48.348;10.980;2023-06-24T03:50:23;16.90;99.90
14144;DHT22;7152;48.348;10.980;2023-06-24T03:52:50;16.90;99.90
14144;DHT22;7152;48.348;10.980;2023-06-24T03:55:16;16.90;99.90
14144;DHT22;7152;48.348;10.980;2023-06-24T03:57:42;16.90;99.90
14144;DHT22;7152;48.348;10.980;2023-06-24T04:00:08;17.00;99.90
14144;DHT22;7152;48.348;10.980;2023-06-24T04:02:40;17.00;99.90
14144;DHT22;7152;48.348;10.980;2023-06-24T04:05:08;17.00;99.90
14144;DHT22;7152;48.348;10.980;2023-06-24T04:07:34;17.00;99.90
14144;DHT22;7152;48.348;10.980;2023-06-24T04:10:03;17.00;99.90
14144;DHT22;7152;48.348;10.980;2023-06-24T04:12:29;17.00;99.90
14144;DHT22;7152;48.348;10.980;2023-06-24T04:14:55;17.00;99.90
14144;DHT22;7152;48.348;10.980;2023-06-24T04:17:21;17.10;99.90
14144;DHT22;7152;48.348;10.980;2023-06-24T04:19:47;17.10;99.90
14144;DHT22;7152;48.348;10.980;2023-06-24T04:22:15;17.10;99.90
14144;DHT22;7152;48.348;10.980;2023-06-24T04:24:41;17.10;99.90
14144;DHT22;7152;48.348;10.980;2023-06-24T04:27:07;17.10;99.90
14144;DHT22;7152;48.348;10.980;2023-06-24T04:29:34;17.10;99.90
14144;DHT22;7152;48.348;10.980;2023-06-24T04:32:00;17.10;99.90
14144;DHT22;7152;48.348;10.980;2023-06-24T04:34:26;17.20;99.90
14144;DHT22;7152;48.348;10.980;2023-06-24T04:36:52;17.10;99.90
14144;DHT22;7152;48.348;10.980;2023-06-24T04:39:18;17.20;99.90
14144;DHT22;7152;48.348;10.980;2023-06-24T04:41:44;17.10;99.90
14144;DHT22;7152;48.348;10.980;2023-06-24T04:44:10;17.20;99.90
14144;DHT22;7152;48.348;10.980;2023-06-24T04:46:35;17.10;99.90
14144;DHT22;7152;48.348;10.980;2023-06-24T04:49:02;17.10;99.90
14144;DHT22;7152;48.348;10.980;2023-06-24T04:51:28;17.00;99.90
14144;DHT22;7152;48.348;10.980;2023-06-24T04:53:54;17.00;99.90
14144;DHT22;7152;48.348;10.980;2023-06-24T04:56:20;17.00;99.90
14144;DHT22;7152;48.348;10.980;2023-06-24T04:58:46;16.90;99.90
14144;DHT22;7152;48.348;10.980;2023-06-24T05:01:12;16.90;99.90
14144;DHT22;7152;48.348;10.980;2023-06-24T05:03:38;16.90;99.90
14144;DHT22;7152;48.348;10.980;2023-06-24T05:06:03;16.90;99.90
14144;DHT22;7152;48.348;10.980;2023-06-24T05:08:30;16.90;99.90
14144;DHT22;7152;48.348;10.980;2023-06-24T05:10:55;16.80;99.90
14144;DHT22;7152;48.348;10.980;2023-06-24T05:13:21;16.90;99.90
14144;DHT22;7152;48.348;10.980;2023-06-24T05:15:47;16.80;99.90
14144;DHT22;7152;48.348;10.980;2023-06-24T05:18:13;16.80;99.90
14144;DHT22;7152;48.348;10.980;2023-06-24T05:20:39;16.80;99.90
14144;DHT22;7152;48.348;10.980;2023-06-24T05:23:04;16.80;99.90
14144;DHT22;7152;48.348;10.980;2023-06-24T05:25:30;16.80;99.90
14144;DHT22;7152;48.348;10.980;2023-06-24T05:27:56;16.80;99.90
14144;DHT22;7152;48.348;10.980;2023-06-24T05:30:22;16.90;99.90
14144;DHT22;7152;48.348;10.980;2023-06-24T05:32:48;16.90;99.90
14144;DHT22;7152;48.348;10.980;2023-06-24T05:35:14;17.00;99.90
14144;DHT22;7152;48.348;10.980;2023-06-24T05:37:40;17.00;99.90
14144;DHT22;7152;48.348;10.980;2023-06-24T05:40:06;17.10;99.90
14144;DHT22;7152;48.348;10.980;2023-06-24T05:42:35;17.20;99.90
14144;DHT22;7152;48.348;10.980;2023-06-24T05:45:01;17.20;99.90
14144;DHT22;7152;48.348;10.980;2023-06-24T05:47:27;17.30;99.90
14144;DHT22;7152;48.348;10.980;2023-06-24T05:49:53;17.30;99.90
14144;DHT22;7152;48.348;10.980;2023-06-24T05:52:19;17.30;99.90
14144;DHT22;7152;48.348;10.980;2023-06-24T05:54:45;17.40;99.90
14144;DHT22;7152;48.348;10.980;2023-06-24T05:57:10;17.50;99.90
14144;DHT22;7152;48.348;10.980;2023-06-24T05:59:36;17.50;99.90
14144;DHT22;7152;48.348;10.980;2023-06-24T06:02:03;17.50;99.90
14144;DHT22;7152;48.348;10.980;2023-06-24T06:04:29;17.50;99.90
14144;DHT22;7152;48.348;10.980;2023-06-24T06:06:55;17.50;99.90
14144;DHT22;7152;48.348;10.980;2023-06-24T06:09:22;17.60;99.90
14144;DHT22;7152;48.348;10.980;2023-06-24T06:11:48;17.60;99.90
14144;DHT22;7152;48.348;10.980;2023-06-24T06:14:14;17.60;99.90
14144;DHT22;7152;48.348;10.980;2023-06-24T06:16:40;17.60;99.90
14144;DHT22;7152;48.348;10.980;2023-06-24T06:19:06;17.60;99.90
14144;DHT22;7152;48.348;10.980;2023-06-24T06:21:32;17.70;99.90
14144;DHT22;7152;48.348;10.980;2023-06-24T06:23:57;17.80;99.90
14144;DHT22;7152;48.348;10.980;2023-06-24T06:26:24;17.90;99.90
14144;DHT22;7152;48.348;10.980;2023-06-24T06:28:49;18.10;99.90
14144;DHT22;7152;48.348;10.980;2023-06-24T06:31:16;18.20;99.90
14144;DHT22;7152;48.348;10.980;2023-06-24T06:33:43;18.40;99.90
14144;DHT22;7152;48.348;10.980;2023-06-24T06:36:09;18.50;99.90
14144;DHT22;7152;48.348;10.980;2023-06-24T06:38:35;18.60;99.90
14144;DHT22;7152;48.348;10.980;2023-06-24T06:41:00;18.60;99.90
14144;DHT22;7152;48.348;10.980;2023-06-24T06:43:26;18.60;99.90
14144;DHT22;7152;48.348;10.980;2023-06-24T06:45:52;18.60;99.90
14144;DHT22;7152;48.348;10.980;2023-06-24T06:48:18;18.70;99.90
14144;DHT22;7152;48.348;10.980;2023-06-24T06:50:45;18.70;99.90
14144;DHT22;7152;48.348;10.980;2023-06-24T06:53:11;18.70;99.90
14144;DHT22;7152;48.348;10.980;2023-06-24T06:55:37;18.70;99.90
14144;DHT22;7152;48.348;10.980;2023-06-24T06:58:08;18.80;99.90
14144;DHT22;7152;48.348;10.980;2023-06-24T07:00:34;18.80;99.90
14144;DHT22;7152;48.348;10.980;2023-06-24T07:03:00;18.80;99.90
14144;DHT22;7152;48.348;10.980;2023-06-24T07:05:25;18.90;99.90
14144;DHT22;7152;48.348;10.980;2023-06-24T07:07:51;19.00;99.90
14144;DHT22;7152;48.348;10.980;2023-06-24T07:10:19;19.10;99.90
14144;DHT22;7152;48.348;10.980;2023-06-24T07:12:45;19.20;99.90
14144;DHT22;7152;48.348;10.980;2023-06-24T07:15:11;19.20;99.90
14144;DHT22;7152;48.348;10.980;2023-06-24T07:17:38;19.30;99.90
14144;DHT22;7152;48.348;10.980;2023-06-24T07:20:04;19.30;99.90
14144;DHT22;7152;48.348;10.980;2023-06-24T07:22:30;19.30;99.90
14144;DHT22;7152;48.348;10.980;2023-06-24T07:24:57;19.40;99.90
14144;DHT22;7152;48.348;10.980;2023-06-24T07:27:25;19.50;99.90
14144;DHT22;7152;48.348;10.980;2023-06-24T07:29:51;19.60;99.90
14144;DHT22;7152;48.348;10.980;2023-06-24T07:32:17;19.70;99.90
14144;DHT22;7152;48.348;10.980;2023-06-24T07:34:43;19.70;99.90
14144;DHT22;7152;48.348;10.980;2023-06-24T07:37:09;19.90;99.90
14144;DHT22;7152;48.348;10.980;2023-06-24T07:39:35;20.00;99.90
14144;DHT22;7152;48.348;10.980;2023-06-24T07:42:00;20.10;99.90
14144;DHT22;7152;48.348;10.980;2023-06-24T07:44:26;20.20;99.90
14144;DHT22;7152;48.348;10.980;2023-06-24T07:46:52;20.40;99.90
14144;DHT22;7152;48.348;10.980;2023-06-24T07:49:18;20.60;99.90
14144;DHT22;7152;48.348;10.980;2023-06-24T07:51:44;20.90;99.90
14144;DHT22;7152;48.348;10.980;2023-06-24T07:54:11;21.20;99.90
14144;DHT22;7152;48.348;10.980;2023-06-24T07:56:37;21.40;99.90
14144;DHT22;7152;48.348;10.980;2023-06-24T07:59:03;21.40;99.90
14144;DHT22;7152;48.348;10.980;2023-06-24T08:01:28;21.60;99.90
14144;DHT22;7152;48.348;10.980;2023-06-24T08:03:54;21.70;99.90
14144;DHT22;7152;48.348;10.980;2023-06-24T08:06:20;21.90;99.90
14144;DHT22;7152;48.348;10.980;2023-06-24T08:08:46;22.00;99.90
14144;DHT22;7152;48.348;10.980;2023-06-24T08:11:12;22.10;99.90
14144;DHT22;7152;48.348;10.980;2023-06-24T08:13:39;22.30;99.90
14144;DHT22;7152;48.348;10.980;2023-06-24T08:16:05;22.30;99.90
14144;DHT22;7152;48.348;10.980;2023-06-24T08:18:31;22.40;99.90
14144;DHT22;7152;48.348;10.980;2023-06-24T08:20:57;22.50;99.90
14144;DHT22;7152;48.348;10.980;2023-06-24T08:23:23;22.60;99.90
14144;DHT22;7152;48.348;10.980;2023-06-24T08:25:49;22.60;99.90
14144;DHT22;7152;48.348;10.980;2023-06-24T08:28:14;22.60;99.90
14144;DHT22;7152;48.348;10.980;2023-06-24T08:30:40;22.70;99.90
14144;DHT22;7152;48.348;10.980;2023-06-24T08:33:06;22.80;99.90
14144;DHT22;7152;48.348;10.980;2023-06-24T08:35:32;22.80;99.90
14144;DHT22;7152;48.348;10.980;2023-06-24T08:37:58;22.80;99.90
14144;DHT22;7152;48.348;10.980;2023-06-24T08:40:24;23.00;99.90
14144;DHT22;7152;48.348;10.980;2023-06-24T08:42:50;23.10;99.90
14144;DHT22;7152;48.348;10.980;2023-06-24T08:45:16;23.40;99.90
14144;DHT22;7152;48.348;10.980;2023-06-24T08:47:43;23.60;99.90
14144;DHT22;7152;48.348;10.980;2023-06-24T08:50:11;23.80;99.90
14144;DHT22;7152;48.348;10.980;2023-06-24T08:52:43;24.10;99.90
14144;DHT22;7152;48.348;10.980;2023-06-24T08:55:13;24.10;99.90
14144;DHT22;7152;48.348;10.980;2023-06-24T08:57:39;24.00;99.90
14144;DHT22;7152;48.348;10.980;2023-06-24T09:00:06;24.00;99.90
14144;DHT22;7152;48.348;10.980;2023-06-24T09:02:36;24.10;99.90
14144;DHT22;7152;48.348;10.980;2023-06-24T09:05:07;24.30;99.90
14144;DHT22;7152;48.348;10.980;2023-06-24T09:07:33;24.30;99.90
14144;DHT22;7152;48.348;10.980;2023-06-24T09:09:59;24.40;99.90
14144;DHT22;7152;48.348;10.980;2023-06-24T09:12:32;24.50;99.90
14144;DHT22;7152;48.348;10.980;2023-06-24T09:14:58;24.30;99.90
14144;DHT22;7152;48.348;10.980;2023-06-24T09:17:24;24.10;99.90
14144;DHT22;7152;48.348;10.980;2023-06-24T09:19:51;24.00;99.90
14144;DHT22;7152;48.348;10.980;2023-06-24T09:22:20;23.70;99.90
14144;DHT22;7152;48.348;10.980;2023-06-24T09:24:47;23.60;99.90
14144;DHT22;7152;48.348;10.980;2023-06-24T09:27:17;23.50;99.90
14144;DHT22;7152;48.348;10.980;2023-06-24T09:29:47;23.40;99.90
14144;DHT22;7152;48.348;10.980;2023-06-24T09:32:14;23.20;99.90
14144;DHT22;7152;48.348;10.980;2023-06-24T09:34:40;23.20;99.90
14144;DHT22;7152;48.348;10.980;2023-06-24T09:37:06;22.90;99.90
14144;DHT22;7152;48.348;10.980;2023-06-24T09:39:40;22.70;99.90
14144;DHT22;7152;48.348;10.980;2023-06-24T09:42:06;22.60;99.90
14144;DHT22;7152;48.348;10.980;2023-06-24T09:44:33;22.50;99.90
14144;DHT22;7152;48.348;10.980;2023-06-24T09:46:59;22.50;99.90
14144;DHT22;7152;48.348;10.980;2023-06-24T09:49:25;22.40;99.90
14144;DHT22;7152;48.348;10.980;2023-06-24T09:51:56;22.30;99.90
14144;DHT22;7152;48.348;10.980;2023-06-24T09:54:28;22.30;99.90
14144;DHT22;7152;48.348;10.980;2023-06-24T09:56:57;22.30;99.90
14144;DHT22;7152;48.348;10.980;2023-06-24T09:59:25;22.40;99.90
14144;DHT22;7152;48.348;10.980;2023-06-24T10:01:55;22.80;99.90
14144;DHT22;7152;48.348;10.980;2023-06-24T10:04:23;23.20;99.90
14144;DHT22;7152;48.348;10.980;2023-06-24T10:06:49;23.60;99.90
14144;DHT22;7152;48.348;10.980;2023-06-24T10:09:16;23.80;99.90
14144;DHT22;7152;48.348;10.980;2023-06-24T10:11:47;24.20;99.90
14144;DHT22;7152;48.348;10.980;2023-06-24T10:14:16;24.50;99.90
14144;DHT22;7152;48.348;10.980;2023-06-24T10:16:42;24.80;99.90
14144;DHT22;7152;48.348;10.980;2023-06-24T10:19:08;25.00;99.90
14144;DHT22;7152;48.348;10.980;2023-06-24T10:21:45;25.20;99.90
14144;DHT22;7152;48.348;10.980;2023-06-24T10:24:12;25.60;99.90
14144;DHT22;7152;48.348;10.980;2023-06-24T10:26:40;25.80;99.90
14144;DHT22;7152;48.348;10.980;2023-06-24T10:34:46;26.70;99.90
14144;DHT22;7152;48.348;10.980;2023-06-24T10:37:13;27.00;99.90
14144;DHT22;7152;48.348;10.980;2023-06-24T10:39:53;27.30;99.90
14144;DHT22;7152;48.348;10.980;2023-06-24T10:42:36;27.70;99.90
14144;DHT22;7152;48.348;10.980;2023-06-24T10:47:35;27.70;98.50
14144;DHT22;7152;48.348;10.980;2023-06-24T10:50:02;27.10;98.50
14144;DHT22;7152;48.348;10.980;2023-06-24T10:52:28;26.50;98.60
14144;DHT22;7152;48.348;10.980;2023-06-24T10:54:56;26.00;98.50
14144;DHT22;7152;48.348;10.980;2023-06-24T10:57:24;26.50;98.50
14144;DHT22;7152;48.348;10.980;2023-06-24T10:59:56;26.50;98.60
14144;DHT22;7152;48.348;10.980;2023-06-24T11:02:27;26.10;98.80
14144;DHT22;7152;48.348;10.980;2023-06-24T11:04:53;26.20;99.00
14144;DHT22;7152;48.348;10.980;2023-06-24T11:07:21;26.20;98.30
14144;DHT22;7152;48.348;10.980;2023-06-24T11:09:55;25.70;98.40
14144;DHT22;7152;48.348;10.980;2023-06-24T11:12:30;25.90;99.00
14144;DHT22;7152;48.348;10.980;2023-06-24T11:14:57;26.40;97.20
14144;DHT22;7152;48.348;10.980;2023-06-24T11:17:24;26.50;97.50
14144;DHT22;7152;48.348;10.980;2023-06-24T11:19:55;26.20;97.60
14144;DHT22;7152;48.348;10.980;2023-06-24T11:22:22;26.10;97.30
14144;DHT22;7152;48.348;10.980;2023-06-24T11:24:48;26.30;97.30
14144;DHT22;7152;48.348;10.980;2023-06-24T11:27:14;27.40;97.50
14144;DHT22;7152;48.348;10.980;2023-06-24T11:29:40;28.50;97.10
14144;DHT22;7152;48.348;10.980;2023-06-24T11:32:09;29.50;95.50
14144;DHT22;7152;48.348;10.980;2023-06-24T11:34:36;30.40;93.10
14144;DHT22;7152;48.348;10.980;2023-06-24T11:37:17;30.90;91.10
14144;DHT22;7152;48.348;10.980;2023-06-24T11:39:44;31.70;88.40
14144;DHT22;7152;48.348;10.980;2023-06-24T11:42:11;32.40;88.70
14144;DHT22;7152;48.348;10.980;2023-06-24T11:44:42;32.70;83.60
14144;DHT22;7152;48.348;10.980;2023-06-24T11:47:11;32.60;80.10
14144;DHT22;7152;48.348;10.980;2023-06-24T11:49:48;31.80;80.60
14144;DHT22;7152;48.348;10.980;2023-06-24T11:52:15;30.70;81.00
14144;DHT22;7152;48.348;10.980;2023-06-24T11:54:41;29.80;83.00
14144;DHT22;7152;48.348;10.980;2023-06-24T11:57:09;28.90;83.70
14144;DHT22;7152;48.348;10.980;2023-06-24T11:59:35;28.30;84.30
14144;DHT22;7152;48.348;10.980;2023-06-24T12:02:01;28.50;85.90
14144;DHT22;7152;48.348;10.980;2023-06-24T12:04:30;28.00;85.40
14144;DHT22;7152;48.348;10.980;2023-06-24T12:06:56;28.50;85.00
14144;DHT22;7152;48.348;10.980;2023-06-24T12:09:22;29.30;83.70
14144;DHT22;7152;48.348;10.980;2023-06-24T12:11:48;30.40;83.70
14144;DHT22;7152;48.348;10.980;2023-06-24T12:14:14;31.30;81.80
14144;DHT22;7152;48.348;10.980;2023-06-24T12:16:40;32.10;79.80
14144;DHT22;7152;48.348;10.980;2023-06-24T12:19:07;32.70;78.40
14144;DHT22;7152;48.348;10.980;2023-06-24T12:21:33;33.30;76.80
14144;DHT22;7152;48.348;10.980;2023-06-24T12:23:59;33.80;73.60
14144;DHT22;7152;48.348;10.980;2023-06-24T12:26:25;34.40;72.10
14144;DHT22;7152;48.348;10.980;2023-06-24T12:28:54;35.10;71.40
14144;DHT22;7152;48.348;10.980;2023-06-24T12:31:21;35.50;65.00
14144;DHT22;7152;48.348;10.980;2023-06-24T12:33:47;35.40;65.30
14144;DHT22;7152;48.348;10.980;2023-06-24T12:36:13;35.40;64.60
14144;DHT22;7152;48.348;10.980;2023-06-24T12:38:39;36.00;63.90
14144;DHT22;7152;48.348;10.980;2023-06-24T12:41:06;36.50;63.10
14144;DHT22;7152;48.348;10.980;2023-06-24T12:43:32;37.00;62.80
14144;DHT22;7152;48.348;10.980;2023-06-24T12:45:58;37.30;58.90
14144;DHT22;7152;48.348;10.980;2023-06-24T12:48:24;37.60;58.10
14144;DHT22;7152;48.348;10.980;2023-06-24T12:50:50;38.00;56.90
14144;DHT22;7152;48.348;10.980;2023-06-24T12:53:20;38.30;56.10
14144;DHT22;7152;48.348;10.980;2023-06-24T12:55:46;38.50;55.50
14144;DHT22;7152;48.348;10.980;2023-06-24T12:58:13;38.60;55.00
14144;DHT22;7152;48.348;10.980;2023-06-24T13:00:40;38.40;54.80
14144;DHT22;7152;48.348;10.980;2023-06-24T13:03:06;38.80;54.60
14144;DHT22;7152;48.348;10.980;2023-06-24T13:05:32;38.90;53.90
14144;DHT22;7152;48.348;10.980;2023-06-24T13:07:58;39.00;53.60
14144;DHT22;7152;48.348;10.980;2023-06-24T13:10:24;38.20;52.50
14144;DHT22;7152;48.348;10.980;2023-06-24T13:12:50;37.10;51.80
14144;DHT22;7152;48.348;10.980;2023-06-24T13:15:17;36.90;53.20
14144;DHT22;7152;48.348;10.980;2023-06-24T13:17:43;37.30;53.10
14144;DHT22;7152;48.348;10.980;2023-06-24T13:20:09;37.80;52.20
14144;DHT22;7152;48.348;10.980;2023-06-24T13:22:35;38.10;51.00
14144;DHT22;7152;48.348;10.980;2023-06-24T13:25:01;38.50;50.20
14144;DHT22;7152;48.348;10.980;2023-06-24T13:27:27;39.20;50.60
14144;DHT22;7152;48.348;10.980;2023-06-24T13:29:53;39.60;51.30
14144;DHT22;7152;48.348;10.980;2023-06-24T13:32:19;39.70;51.10
14144;DHT22;7152;48.348;10.980;2023-06-24T13:34:45;39.10;50.00
14144;DHT22;7152;48.348;10.980;2023-06-24T13:37:11;39.10;48.80
14144;DHT22;7152;48.348;10.980;2023-06-24T13:39:37;39.10;49.50
14144;DHT22;7152;48.348;10.980;2023-06-24T13:42:03;39.40;49.70
14144;DHT22;7152;48.348;10.980;2023-06-24T13:44:28;39.60;49.80
14144;DHT22;7152;48.348;10.980;2023-06-24T13:46:57;38.80;49.30
14144;DHT22;7152;48.348;10.980;2023-06-24T13:49:23;37.50;50.70
14144;DHT22;7152;48.348;10.980;2023-06-24T13:51:49;36.90;51.60
14144;DHT22;7152;48.348;10.980;2023-06-24T13:54:15;37.10;51.60
14144;DHT22;7152;48.348;10.980;2023-06-24T13:56:40;36.10;52.10
14144;DHT22;7152;48.348;10.980;2023-06-24T13:59:06;35.20;52.30
14144;DHT22;7152;48.348;10.980;2023-06-24T14:01:32;34.30;52.90
14144;DHT22;7152;48.348;10.980;2023-06-24T14:03:58;33.50;54.30
14144;DHT22;7152;48.348;10.980;2023-06-24T14:06:24;33.60;54.70
14144;DHT22;7152;48.348;10.980;2023-06-24T14:08:51;34.50;54.20
14144;DHT22;7152;48.348;10.980;2023-06-24T14:11:17;35.60;54.60
14144;DHT22;7152;48.348;10.980;2023-06-24T14:13:43;36.30;53.30
14144;DHT22;7152;48.348;10.980;2023-06-24T14:16:10;37.40;52.30
14144;DHT22;7152;48.348;10.980;2023-06-24T14:18:36;38.20;51.00
14144;DHT22;7152;48.348;10.980;2023-06-24T14:21:04;38.50;49.70
14144;DHT22;7152;48.348;10.980;2023-06-24T14:23:30;38.90;49.10
14144;DHT22;7152;48.348;10.980;2023-06-24T14:25:57;39.20;48.50
14144;DHT22;7152;48.348;10.980;2023-06-24T14:28:23;39.80;49.00
14144;DHT22;7152;48.348;10.980;2023-06-24T14:30:49;39.80;49.10
14144;DHT22;7152;48.348;10.980;2023-06-24T14:33:15;40.50;48.90
14144;DHT22;7152;48.348;10.980;2023-06-24T14:35:41;40.80;48.80
14144;DHT22;7152;48.348;10.980;2023-06-24T14:38:08;40.90;47.70
14144;DHT22;7152;48.348;10.980;2023-06-24T14:40:34;41.50;47.50
14144;DHT22;7152;48.348;10.980;2023-06-24T14:43:00;42.00;47.30
14144;DHT22;7152;48.348;10.980;2023-06-24T14:45:26;42.10;47.00
14144;DHT22;7152;48.348;10.980;2023-06-24T14:47:52;42.20;47.00
14144;DHT22;7152;48.348;10.980;2023-06-24T14:50:18;42.10;46.00
14144;DHT22;7152;48.348;10.980;2023-06-24T14:52:44;41.70;46.70
14144;DHT22;7152;48.348;10.980;2023-06-24T14:55:10;40.50;46.60
14144;DHT22;7152;48.348;10.980;2023-06-24T14:57:39;40.00;47.10
14144;DHT22;7152;48.348;10.980;2023-06-24T15:00:08;39.70;46.90
14144;DHT22;7152;48.348;10.980;2023-06-24T15:02:34;40.00;46.40
14144;DHT22;7152;48.348;10.980;2023-06-24T15:05:01;40.30;46.80
14144;DHT22;7152;48.348;10.980;2023-06-24T15:07:27;40.50;46.60
14144;DHT22;7152;48.348;10.980;2023-06-24T15:09:53;40.40;46.10
14144;DHT22;7152;48.348;10.980;2023-06-24T15:12:19;40.60;45.90
14144;DHT22;7152;48.348;10.980;2023-06-24T15:14:45;40.80;45.40
14144;DHT22;7152;48.348;10.980;2023-06-24T15:17:12;41.10;44.00
14144;DHT22;7152;48.348;10.980;2023-06-24T15:19:37;41.30;44.10
14144;DHT22;7152;48.348;10.980;2023-06-24T15:22:03;41.10;44.30
14144;DHT22;7152;48.348;10.980;2023-06-24T15:24:29;41.00;43.60
14144;DHT22;7152;48.348;10.980;2023-06-24T15:26:56;41.10;44.50
14144;DHT22;7152;48.348;10.980;2023-06-24T15:29:23;41.50;44.20
14144;DHT22;7152;48.348;10.980;2023-06-24T15:31:49;41.80;43.80
14144;DHT22;7152;48.348;10.980;2023-06-24T15:34:14;42.00;43.40
14144;DHT22;7152;48.348;10.980;2023-06-24T15:36:40;42.50;43.10
14144;DHT22;7152;48.348;10.980;2023-06-24T15:39:06;42.80;43.00
14144;DHT22;7152;48.348;10.980;2023-06-24T15:41:32;42.70;42.50
14144;DHT22;7152;48.348;10.980;2023-06-24T15:43:58;42.50;43.60
14144;DHT22;7152;48.348;10.980;2023-06-24T15:46:24;42.80;43.60
14144;DHT22;7152;48.348;10.980;2023-06-24T15:48:49;42.90;43.50
14144;DHT22;7152;48.348;10.980;2023-06-24T15:51:15;43.00;43.40
14144;DHT22;7152;48.348;10.980;2023-06-24T15:53:41;43.00;43.00